Time,TemperatureF,DewpointF,PressureIn,WindDirection,WindDirectionDegrees,WindSpeedMPH,WindSpeedGustMPH,Humidity,HourlyPrecipIn,Conditions,Clouds,dailyrainin,SoftwareType,DateUTC
2013-12-03 00:03:00,0.0,0.0,29.92,ESE,103,1.0,1.0,0,0.00,,OVC070,0.00,VWS V14.01,2013-12-03 05:03:00,
2013-12-03 00:33:00,0.0,0.0,29.92,ESE,115,2.0,2.0,0,0.00,,OVC070,0.00,VWS V14.01,2013-12-03 05:33:00,
2013-12-03 01:03:00,0.0,0.0,29.92,ESE,111,2.0,2.0,0,0.00,,OVC060,0.00,VWS V14.01,2013-12-03 06:03:00,
2013-12-03 01:33:00,0.0,0.0,29.91,SE,146,1.0,2.0,0,0.00,,OVC060,0.00,VWS V14.01,2013-12-03 06:33:00,
2013-12-03 02:03:00,0.0,0.0,29.91,SE,140,1.0,2.0,0,0.00,,,0.00,VWS V14.01,2013-12-03 07:03:00,
2013-12-03 02:33:00,0.0,0.0,29.91,SSE,149,0.0,1.0,0,0.00,,,0.00,VWS V14.01,2013-12-03 07:33:00,
2013-12-03 03:03:00,0.0,0.0,29.91,East,82,1.0,1.0,0,0.00,,OVC070,0.00,VWS V14.01,2013-12-03 08:03:00,
2013-12-03 03:33:00,0.0,0.0,29.90,East,91,4.0,4.0,0,0.00,,OVC070,0.00,VWS V14.01,2013-12-03 08:33:00,
2013-12-03 04:03:00,0.0,0.0,29.90,SSE,150,1.0,1.0,0,0.00,,,0.00,VWS V14.01,2013-12-03 09:03:00,
2013-12-03 04:33:00,0.0,0.0,29.90,ESE,123,2.0,2.0,0,0.00,,,0.00,VWS V14.01,2013-12-03 09:33:00,
2013-12-03 05:03:00,0.0,0.0,29.90,ESE,123,1.0,1.0,0,0.00,,OVC070,0.00,VWS V14.01,2013-12-03 10:03:00,
2013-12-03 05:33:00,0.0,0.0,29.90,ENE,61,4.0,5.0,0,0.00,,OVC070,0.00,VWS V14.01,2013-12-03 10:33:00,
2013-12-03 06:03:00,0.0,0.0,29.89,East,86,3.0,3.0,0,0.00,,OVC055,0.00,VWS V14.01,2013-12-03 11:03:00,
2013-12-03 06:33:00,0.0,0.0,29.91,ESE,110,3.0,7.0,0,0.00,,OVC055,0.00,VWS V14.01,2013-12-03 11:33:00,
2013-12-03 07:03:00,0.0,0.0,29.91,ESE,114,2.0,3.0,0,0.00,,,0.00,VWS V14.01,2013-12-03 12:03:00,
2013-12-03 07:33:00,0.0,0.0,29.91,East,86,4.0,4.0,0,0.00,,,0.00,VWS V14.01,2013-12-03 12:33:00,
2013-12-03 08:03:00,0.0,0.0,29.91,East,90,3.0,3.0,0,0.00,,,0.00,VWS V14.01,2013-12-03 13:03:00,
2013-12-03 08:33:00,0.0,0.0,29.92,ENE,64,4.0,4.0,0,0.00,,,0.00,VWS V14.01,2013-12-03 13:33:00,
2013-12-03 09:03:00,0.0,0.0,29.92,East,85,4.0,7.0,0,0.00,,,0.00,VWS V14.01,2013-12-03 14:03:00,
2013-12-03 09:33:00,0.0,0.0,29.93,ENE,71,6.0,9.0,0,0.00,,,0.00,VWS V14.01,2013-12-03 14:33:00,
2013-12-03 10:03:00,0.0,0.0,29.93,East,96,3.0,3.0,0,0.00,,,0.00,VWS V14.01,2013-12-03 15:03:00,
2013-12-03 10:33:00,0.0,0.0,29.94,East,98,7.0,7.0,0,0.00,,,0.00,VWS V14.01,2013-12-03 15:33:00,
2013-12-03 11:03:00,0.0,0.0,29.94,ESE,121,5.0,6.0,0,0.00,,,0.00,VWS V14.01,2013-12-03 16:03:00,
2013-12-03 11:33:00,0.0,0.0,29.94,ESE,109,3.0,6.0,0,0.00,,,0.00,VWS V14.01,2013-12-03 16:33:00,
2013-12-03 12:03:00,0.0,0.0,29.93,East,84,4.0,4.0,0,0.00,,,0.00,VWS V14.01,2013-12-03 17:03:00,
2013-12-03 12:33:00,0.0,0.0,29.93,East,83,5.0,8.0,0,0.00,,,0.00,VWS V14.01,2013-12-03 17:33:00,
2013-12-03 13:03:00,0.0,0.0,29.93,ESE,109,6.0,8.0,0,0.00,,OVC011,0.00,VWS V14.01,2013-12-03 18:03:00,
2013-12-03 13:33:00,0.0,0.0,29.92,ESE,117,7.0,7.0,0,0.00,,OVC011,0.00,VWS V14.01,2013-12-03 18:33:00,
2013-12-03 14:03:00,0.0,0.0,29.92,ESE,105,8.0,9.0,0,0.00,,OVC011,0.00,VWS V14.01,2013-12-03 19:03:00,
2013-12-03 14:33:00,0.0,0.0,29.91,East,100,9.0,9.0,0,0.00,,OVC011,0.00,VWS V14.01,2013-12-03 19:33:00,
2013-12-03 15:03:00,0.0,0.0,29.90,East,90,8.0,8.0,0,0.00,,OVC023,0.00,VWS V14.01,2013-12-03 20:03:00,
2013-12-03 15:33:00,0.0,0.0,29.91,ESE,111,3.0,4.0,0,0.00,,OVC023,0.00,VWS V14.01,2013-12-03 20:33:00,
2013-12-03 16:03:00,0.0,0.0,29.90,ENE,61,6.0,8.0,0,0.00,,OVC021,0.00,VWS V14.01,2013-12-03 21:03:00,
2013-12-03 16:33:00,0.0,0.0,29.89,East,92,7.0,9.0,0,0.00,,OVC021,0.00,VWS V14.01,2013-12-03 21:33:00,
2013-12-03 17:03:00,0.0,0.0,29.89,East,92,11.0,11.0,0,0.00,,OVC014,0.00,VWS V14.01,2013-12-03 22:03:00,
2013-12-03 17:33:00,0.0,0.0,29.90,ENE,77,10.0,10.0,0,0.00,,OVC014,0.00,VWS V14.01,2013-12-03 22:33:00,
2013-12-03 18:03:00,0.0,0.0,29.89,East,96,8.0,8.0,0,0.00,,OVC014,0.00,VWS V14.01,2013-12-03 23:03:00,
2013-12-03 18:33:00,0.0,0.0,29.89,ENE,74,5.0,5.0,0,0.00,,OVC014,0.00,VWS V14.01,2013-12-03 23:33:00,
2013-12-03 19:03:00,0.0,0.0,29.90,East,101,11.0,11.0,0,0.00,,OVC016,0.00,VWS V14.01,2013-12-04 00:03:00,
2013-12-03 19:33:00,0.0,0.0,29.90,ESE,108,6.0,7.0,0,0.00,,OVC016,0.00,VWS V14.01,2013-12-04 00:33:00,
2013-12-03 20:03:00,0.0,0.0,29.90,East,79,8.0,11.0,0,0.00,,OVC014,0.00,VWS V14.01,2013-12-04 01:03:00,
2013-12-03 20:33:00,0.0,0.0,29.89,East,90,8.0,8.0,0,0.00,,OVC014,0.00,VWS V14.01,2013-12-04 01:33:00,
2013-12-03 21:03:00,0.0,0.0,29.89,East,90,11.0,11.0,0,0.00,,OVC014,0.00,VWS V14.01,2013-12-04 02:03:00,
2013-12-03 21:33:00,0.0,0.0,29.89,ESE,105,7.0,8.0,0,0.00,,OVC014,0.00,VWS V14.01,2013-12-04 02:33:00,
2013-12-03 22:03:00,0.0,0.0,29.89,ENE,73,9.0,10.0,0,0.00,,OVC018,0.00,VWS V14.01,2013-12-04 03:03:00,
2013-12-03 22:33:00,0.0,0.0,29.89,ESE,120,8.0,9.0,0,0.00,,OVC018,0.00,VWS V14.01,2013-12-04 03:33:00,
2013-12-03 23:03:00,0.0,0.0,29.88,East,90,9.0,9.0,0,0.00,,OVC018,0.00,VWS V14.01,2013-12-04 04:03:00,
2013-12-03 23:33:00,0.0,0.0,29.89,ESE,105,7.0,7.0,0,0.00,,OVC018,0.00,VWS V14.01,2013-12-04 04:33:00,